sensor_id;sensor_type;location;lat;lon;timestamp;temperature;humidity
26503;DHT22;14177;51.520;6.764;2023-09-18T00:00:45;19.50;99.90
26503;DHT22;14177;51.520;6.764;2023-09-18T00:03:13;19.50;99.90
26503;DHT22;14177;51.520;6.764;2023-09-18T00:05:40;19.50;99.90
26503;DHT22;14177;51.520;6.764;2023-09-18T00:08:07;19.60;99.90
26503;DHT22;14177;51.520;6.764;2023-09-18T00:10:34;19.60;99.90
26503;DHT22;14177;51.520;6.764;2023-09-18T00:13:02;19.70;99.90
26503;DHT22;14177;51.520;6.764;2023-09-18T00:15:29;19.80;99.90
26503;DHT22;14177;51.520;6.764;2023-09-18T00:17:57;19.80;99.90
26503;DHT22;14177;51.520;6.764;2023-09-18T00:20:24;19.80;99.90
26503;DHT22;14177;51.520;6.764;2023-09-18T00:22:55;19.80;99.90
26503;DHT22;14177;51.520;6.764;2023-09-18T00:25:22;19.80;99.90
26503;DHT22;14177;51.520;6.764;2023-09-18T00:27:49;19.90;99.90
26503;DHT22;14177;51.520;6.764;2023-09-18T00:30:18;19.90;99.90
26503;DHT22;14177;51.520;6.764;2023-09-18T00:32:45;19.90;99.90
26503;DHT22;14177;51.520;6.764;2023-09-18T00:35:14;19.90;99.90
26503;DHT22;14177;51.520;6.764;2023-09-18T00:37:41;19.90;99.90
26503;DHT22;14177;51.520;6.764;2023-09-18T00:40:10;19.90;99.90
26503;DHT22;14177;51.520;6.764;2023-09-18T00:42:38;20.00;99.90
26503;DHT22;14177;51.520;6.764;2023-09-18T00:45:05;19.90;99.90
26503;DHT22;14177;51.520;6.764;2023-09-18T00:47:32;20.00;99.90
26503;DHT22;14177;51.520;6.764;2023-09-18T00:50:00;19.90;99.90
26503;DHT22;14177;51.520;6.764;2023-09-18T00:52:28;19.90;99.90
26503;DHT22;14177;51.520;6.764;2023-09-18T00:54:55;19.80;99.90
26503;DHT22;14177;51.520;6.764;2023-09-18T00:57:23;19.80;99.90
26503;DHT22;14177;51.520;6.764;2023-09-18T00:59:50;19.90;99.90
26503;DHT22;14177;51.520;6.764;2023-09-18T01:02:17;19.80;99.90
26503;DHT22;14177;51.520;6.764;2023-09-18T01:04:48;19.80;99.90
26503;DHT22;14177;51.520;6.764;2023-09-18T01:07:16;19.80;99.90
26503;DHT22;14177;51.520;6.764;2023-09-18T01:09:43;19.80;99.90
26503;DHT22;14177;51.520;6.764;2023-09-18T01:15:35;19.70;99.90
26503;DHT22;14177;51.520;6.764;2023-09-18T01:18:10;19.70;99.90
26503;DHT22;14177;51.520;6.764;2023-09-18T01:20:37;19.80;99.90
26503;DHT22;14177;51.520;6.764;2023-09-18T01:23:04;19.80;99.90
26503;DHT22;14177;51.520;6.764;2023-09-18T01:25:31;19.80;99.90
26503;DHT22;14177;51.520;6.764;2023-09-18T01:28:00;19.80;99.90
26503;DHT22;14177;51.520;6.764;2023-09-18T01:30:27;19.80;99.90
26503;DHT22;14177;51.520;6.764;2023-09-18T01:32:55;19.80;99.90
26503;DHT22;14177;51.520;6.764;2023-09-18T01:35:26;19.80;99.90
26503;DHT22;14177;51.520;6.764;2023-09-18T01:37:57;19.80;99.90
26503;DHT22;14177;51.520;6.764;2023-09-18T01:40:26;19.80;99.90
26503;DHT22;14177;51.520;6.764;2023-09-18T01:42:53;19.80;99.90
26503;DHT22;14177;51.520;6.764;2023-09-18T01:45:20;19.70;99.90
26503;DHT22;14177;51.520;6.764;2023-09-18T01:47:47;19.70;99.90
26503;DHT22;14177;51.520;6.764;2023-09-18T01:50:14;19.70;99.90
26503;DHT22;14177;51.520;6.764;2023-09-18T01:52:41;19.70;99.90
26503;DHT22;14177;51.520;6.764;2023-09-18T01:55:09;19.70;99.90
26503;DHT22;14177;51.520;6.764;2023-09-18T01:57:36;19.70;99.90
26503;DHT22;14177;51.520;6.764;2023-09-18T02:00:04;19.80;99.90
26503;DHT22;14177;51.520;6.764;2023-09-18T02:02:38;19.70;99.90
26503;DHT22;14177;51.520;6.764;2023-09-18T02:05:23;19.70;99.90
26503;DHT22;14177;51.520;6.764;2023-09-18T02:07:51;19.70;99.90
26503;DHT22;14177;51.520;6.764;2023-09-18T02:10:19;19.60;99.90
26503;DHT22;14177;51.520;6.764;2023-09-18T02:12:46;19.60;99.90
26503;DHT22;14177;51.520;6.764;2023-09-18T02:15:13;19.60;99.90
26503;DHT22;14177;51.520;6.764;2023-09-18T02:17:40;19.60;99.90
26503;DHT22;14177;51.520;6.764;2023-09-18T02:20:08;19.60;99.90
26503;DHT22;14177;51.520;6.764;2023-09-18T02:22:38;19.60;99.90
26503;DHT22;14177;51.520;6.764;2023-09-18T02:25:13;19.60;99.90
26503;DHT22;14177;51.520;6.764;2023-09-18T02:27:40;19.60;99.90
26503;DHT22;14177;51.520;6.764;2023-09-18T02:30:07;19.60;99.90
26503;DHT22;14177;51.520;6.764;2023-09-18T02:32:36;19.60;99.90
26503;DHT22;14177;51.520;6.764;2023-09-18T02:35:04;19.60;99.90
26503;DHT22;14177;51.520;6.764;2023-09-18T02:37:34;19.60;99.90
26503;DHT22;14177;51.520;6.764;2023-09-18T02:40:01;19.60;99.90
26503;DHT22;14177;51.520;6.764;2023-09-18T02:42:27;19.60;99.90
26503;DHT22;14177;51.520;6.764;2023-09-18T02:44:54;19.60;99.90
26503;DHT22;14177;51.520;6.764;2023-09-18T02:47:21;19.60;99.90
26503;DHT22;14177;51.520;6.764;2023-09-18T02:49:49;19.60;99.90
26503;DHT22;14177;51.520;6.764;2023-09-18T02:52:15;19.60;99.90
26503;DHT22;14177;51.520;6.764;2023-09-18T02:54:42;19.60;99.90
26503;DHT22;14177;51.520;6.764;2023-09-18T02:57:09;19.50;99.90
26503;DHT22;14177;51.520;6.764;2023-09-18T02:59:37;19.50;99.90
26503;DHT22;14177;51.520;6.764;2023-09-18T03:02:04;19.50;99.90
26503;DHT22;14177;51.520;6.764;2023-09-18T03:04:31;19.40;99.90
26503;DHT22;14177;51.520;6.764;2023-09-18T03:06:58;19.50;99.90
26503;DHT22;14177;51.520;6.764;2023-09-18T03:09:26;19.50;99.90
26503;DHT22;14177;51.520;6.764;2023-09-18T03:11:53;19.60;99.90
26503;DHT22;14177;51.520;6.764;2023-09-18T03:14:20;19.50;99.90
26503;DHT22;14177;51.520;6.764;2023-09-18T03:16:47;19.50;99.90
26503;DHT22;14177;51.520;6.764;2023-09-18T03:19:13;19.50;99.90
26503;DHT22;14177;51.520;6.764;2023-09-18T03:21:41;19.50;99.90
26503;DHT22;14177;51.520;6.764;2023-09-18T03:24:08;19.50;99.90
26503;DHT22;14177;51.520;6.764;2023-09-18T03:26:35;19.60;99.90
26503;DHT22;14177;51.520;6.764;2023-09-18T03:29:03;19.60;99.90
26503;DHT22;14177;51.520;6.764;2023-09-18T03:31:31;19.60;99.90
26503;DHT22;14177;51.520;6.764;2023-09-18T03:33:58;19.60;99.90
26503;DHT22;14177;51.520;6.764;2023-09-18T03:36:26;19.70;99.90
26503;DHT22;14177;51.520;6.764;2023-09-18T03:38:53;19.70;99.90
26503;DHT22;14177;51.520;6.764;2023-09-18T03:41:21;19.80;99.90
26503;DHT22;14177;51.520;6.764;2023-09-18T03:43:48;19.80;99.90
26503;DHT22;14177;51.520;6.764;2023-09-18T03:46:16;19.90;99.90
26503;DHT22;14177;51.520;6.764;2023-09-18T03:48:47;19.90;99.90
26503;DHT22;14177;51.520;6.764;2023-09-18T03:51:14;20.10;99.90
26503;DHT22;14177;51.520;6.764;2023-09-18T03:53:43;20.20;99.90
26503;DHT22;14177;51.520;6.764;2023-09-18T03:56:10;20.30;99.90
26503;DHT22;14177;51.520;6.764;2023-09-18T03:58:37;20.40;99.90
26503;DHT22;14177;51.520;6.764;2023-09-18T04:01:04;20.60;99.90
26503;DHT22;14177;51.520;6.764;2023-09-18T04:03:31;20.60;99.90
26503;DHT22;14177;51.520;6.764;2023-09-18T04:05:59;20.70;99.90
26503;DHT22;14177;51.520;6.764;2023-09-18T04:08:26;20.70;99.90
26503;DHT22;14177;51.520;6.764;2023-09-18T04:10:55;20.80;99.90
26503;DHT22;14177;51.520;6.764;2023-09-18T04:13:23;20.80;99.90
26503;DHT22;14177;51.520;6.764;2023-09-18T04:15:52;20.80;99.90
26503;DHT22;14177;51.520;6.764;2023-09-18T04:18:24;20.80;99.90
26503;DHT22;14177;51.520;6.764;2023-09-18T04:20:50;20.80;99.90
26503;DHT22;14177;51.520;6.764;2023-09-18T04:23:23;20.80;99.90
26503;DHT22;14177;51.520;6.764;2023-09-18T04:25:52;20.80;99.90
26503;DHT22;14177;51.520;6.764;2023-09-18T04:28:22;20.80;99.90
26503;DHT22;14177;51.520;6.764;2023-09-18T04:30:49;20.80;99.90
26503;DHT22;14177;51.520;6.764;2023-09-18T04:33:17;20.80;99.90
26503;DHT22;14177;51.520;6.764;2023-09-18T04:35:45;20.90;99.90
26503;DHT22;14177;51.520;6.764;2023-09-18T04:38:13;20.90;99.90
26503;DHT22;14177;51.520;6.764;2023-09-18T04:40:44;21.00;99.90
26503;DHT22;14177;51.520;6.764;2023-09-18T04:43:13;21.10;99.90
26503;DHT22;14177;51.520;6.764;2023-09-18T04:45:40;21.10;99.90
26503;DHT22;14177;51.520;6.764;2023-09-18T04:48:07;21.10;99.90
26503;DHT22;14177;51.520;6.764;2023-09-18T04:50:35;21.10;99.90
26503;DHT22;14177;51.520;6.764;2023-09-18T04:53:03;21.10;99.90
26503;DHT22;14177;51.520;6.764;2023-09-18T04:55:31;21.10;99.90
26503;DHT22;14177;51.520;6.764;2023-09-18T04:57:58;21.10;99.90
26503;DHT22;14177;51.520;6.764;2023-09-18T05:00:27;21.10;99.90
26503;DHT22;14177;51.520;6.764;2023-09-18T05:02:58;21.10;99.90
26503;DHT22;14177;51.520;6.764;2023-09-18T05:05:30;21.10;99.90
26503;DHT22;14177;51.520;6.764;2023-09-18T05:07:57;21.00;99.90
26503;DHT22;14177;51.520;6.764;2023-09-18T05:10:24;21.00;99.90
26503;DHT22;14177;51.520;6.764;2023-09-18T05:12:51;21.00;99.90
26503;DHT22;14177;51.520;6.764;2023-09-18T05:15:25;21.10;99.90
26503;DHT22;14177;51.520;6.764;2023-09-18T05:17:56;21.00;99.90
26503;DHT22;14177;51.520;6.764;2023-09-18T05:20:27;21.00;99.90
26503;DHT22;14177;51.520;6.764;2023-09-18T05:22:56;21.00;99.90
26503;DHT22;14177;51.520;6.764;2023-09-18T05:25:26;21.00;99.90
26503;DHT22;14177;51.520;6.764;2023-09-18T05:27:59;20.90;99.90
26503;DHT22;14177;51.520;6.764;2023-09-18T05:30:29;20.90;99.90
26503;DHT22;14177;51.520;6.764;2023-09-18T05:33:00;20.90;99.90
26503;DHT22;14177;51.520;6.764;2023-09-18T05:35:40;20.80;99.90
26503;DHT22;14177;51.520;6.764;2023-09-18T05:38:12;20.80;99.90
26503;DHT22;14177;51.520;6.764;2023-09-18T05:40:41;20.80;99.90
26503;DHT22;14177;51.520;6.764;2023-09-18T05:43:08;20.80;99.90
26503;DHT22;14177;51.520;6.764;2023-09-18T05:45:35;20.80;99.90
26503;DHT22;14177;51.520;6.764;2023-09-18T05:48:02;20.80;99.90
26503;DHT22;14177;51.520;6.764;2023-09-18T05:50:35;20.80;99.90
26503;DHT22;14177;51.520;6.764;2023-09-18T05:53:03;20.80;99.90
26503;DHT22;14177;51.520;6.764;2023-09-18T05:55:32;20.70;99.90
26503;DHT22;14177;51.520;6.764;2023-09-18T05:58:00;20.70;99.90
26503;DHT22;14177;51.520;6.764;2023-09-18T06:00:30;20.70;99.90
26503;DHT22;14177;51.520;6.764;2023-09-18T06:02:57;20.70;99.90
26503;DHT22;14177;51.520;6.764;2023-09-18T06:05:25;20.70;99.90
26503;DHT22;14177;51.520;6.764;2023-09-18T06:07:53;20.70;99.90
26503;DHT22;14177;51.520;6.764;2023-09-18T06:10:20;20.70;99.90
26503;DHT22;14177;51.520;6.764;2023-09-18T06:12:47;20.70;99.90
26503;DHT22;14177;51.520;6.764;2023-09-18T06:15:14;20.70;99.90
26503;DHT22;14177;51.520;6.764;2023-09-18T06:17:43;20.80;99.90
26503;DHT22;14177;51.520;6.764;2023-09-18T06:20:12;20.70;99.90
26503;DHT22;14177;51.520;6.764;2023-09-18T06:22:43;20.70;99.90
26503;DHT22;14177;51.520;6.764;2023-09-18T06:25:10;20.80;99.90
26503;DHT22;14177;51.520;6.764;2023-09-18T06:27:37;20.80;99.90
26503;DHT22;14177;51.520;6.764;2023-09-18T06:30:05;20.80;99.90
26503;DHT22;14177;51.520;6.764;2023-09-18T06:32:33;20.90;99.90
26503;DHT22;14177;51.520;6.764;2023-09-18T06:35:01;20.90;99.90
26503;DHT22;14177;51.520;6.764;2023-09-18T06:37:28;20.90;99.90
26503;DHT22;14177;51.520;6.764;2023-09-18T06:39:55;21.00;99.90
26503;DHT22;14177;51.520;6.764;2023-09-18T06:42:25;21.00;99.90
26503;DHT22;14177;51.520;6.764;2023-09-18T06:44:56;21.00;99.90
26503;DHT22;14177;51.520;6.764;2023-09-18T06:47:24;21.00;99.90
26503;DHT22;14177;51.520;6.764;2023-09-18T06:49:51;21.00;99.90
26503;DHT22;14177;51.520;6.764;2023-09-18T06:52:18;21.00;99.90
26503;DHT22;14177;51.520;6.764;2023-09-18T06:54:46;21.00;99.90
26503;DHT22;14177;51.520;6.764;2023-09-18T06:57:13;21.10;99.90
26503;DHT22;14177;51.520;6.764;2023-09-18T06:59:39;21.00;99.90
26503;DHT22;14177;51.520;6.764;2023-09-18T07:02:06;21.10;99.90
26503;DHT22;14177;51.520;6.764;2023-09-18T07:04:34;21.10;99.90
26503;DHT22;14177;51.520;6.764;2023-09-18T07:07:01;21.20;99.90
26503;DHT22;14177;51.520;6.764;2023-09-18T07:09:28;21.20;99.90
26503;DHT22;14177;51.520;6.764;2023-09-18T07:11:54;21.20;99.90
26503;DHT22;14177;51.520;6.764;2023-09-18T07:14:22;21.30;99.90
26503;DHT22;14177;51.520;6.764;2023-09-18T07:16:49;21.30;99.90
26503;DHT22;14177;51.520;6.764;2023-09-18T07:19:15;21.30;99.90
26503;DHT22;14177;51.520;6.764;2023-09-18T07:21:44;21.30;99.90
26503;DHT22;14177;51.520;6.764;2023-09-18T07:24:11;21.30;99.90
26503;DHT22;14177;51.520;6.764;2023-09-18T07:26:47;21.30;99.90
26503;DHT22;14177;51.520;6.764;2023-09-18T07:29:15;21.30;99.90
26503;DHT22;14177;51.520;6.764;2023-09-18T07:31:43;21.30;99.90
26503;DHT22;14177;51.520;6.764;2023-09-18T07:34:11;21.30;99.90
26503;DHT22;14177;51.520;6.764;2023-09-18T07:36:40;21.30;99.90
26503;DHT22;14177;51.520;6.764;2023-09-18T07:39:07;21.30;99.90
26503;DHT22;14177;51.520;6.764;2023-09-18T07:41:34;21.30;99.90
26503;DHT22;14177;51.520;6.764;2023-09-18T07:44:01;21.30;99.90
26503;DHT22;14177;51.520;6.764;2023-09-18T07:46:28;21.30;99.90
26503;DHT22;14177;51.520;6.764;2023-09-18T07:48:55;21.30;99.90
26503;DHT22;14177;51.520;6.764;2023-09-18T07:51:22;21.30;99.90
26503;DHT22;14177;51.520;6.764;2023-09-18T07:53:50;21.30;99.90
26503;DHT22;14177;51.520;6.764;2023-09-18T07:56:17;21.20;99.90
26503;DHT22;14177;51.520;6.764;2023-09-18T07:58:45;21.30;99.90
26503;DHT22;14177;51.520;6.764;2023-09-18T08:01:13;21.20;99.90
26503;DHT22;14177;51.520;6.764;2023-09-18T08:03:42;21.20;99.90
26503;DHT22;14177;51.520;6.764;2023-09-18T08:06:09;21.20;99.90
26503;DHT22;14177;51.520;6.764;2023-09-18T08:08:38;21.20;99.90
26503;DHT22;14177;51.520;6.764;2023-09-18T08:11:09;21.30;99.90
26503;DHT22;14177;51.520;6.764;2023-09-18T08:13:37;21.30;99.90
26503;DHT22;14177;51.520;6.764;2023-09-18T08:16:06;21.30;99.90
26503;DHT22;14177;51.520;6.764;2023-09-18T08:18:34;21.40;99.90
26503;DHT22;14177;51.520;6.764;2023-09-18T08:21:02;21.40;99.90
26503;DHT22;14177;51.520;6.764;2023-09-18T08:23:31;21.30;99.90
26503;DHT22;14177;51.520;6.764;2023-09-18T08:25:59;21.40;99.90
26503;DHT22;14177;51.520;6.764;2023-09-18T08:28:26;21.30;99.90
26503;DHT22;14177;51.520;6.764;2023-09-18T08:30:53;21.40;99.90
26503;DHT22;14177;51.520;6.764;2023-09-18T08:33:20;21.50;99.90
26503;DHT22;14177;51.520;6.764;2023-09-18T08:35:48;21.50;99.90
26503;DHT22;14177;51.520;6.764;2023-09-18T08:38:16;21.50;99.90
26503;DHT22;14177;51.520;6.764;2023-09-18T08:40:43;21.50;99.90
26503;DHT22;14177;51.520;6.764;2023-09-18T08:43:12;21.50;99.90
26503;DHT22;14177;51.520;6.764;2023-09-18T08:45:46;21.60;99.90
26503;DHT22;14177;51.520;6.764;2023-09-18T08:48:19;21.60;99.90
26503;DHT22;14177;51.520;6.764;2023-09-18T08:50:48;21.60;99.90
26503;DHT22;14177;51.520;6.764;2023-09-18T08:53:16;21.50;99.90
26503;DHT22;14177;51.520;6.764;2023-09-18T08:55:43;21.50;99.90
26503;DHT22;14177;51.520;6.764;2023-09-18T08:58:10;21.50;99.90
26503;DHT22;14177;51.520;6.764;2023-09-18T09:00:37;21.50;99.90
26503;DHT22;14177;51.520;6.764;2023-09-18T09:03:05;21.60;99.90
26503;DHT22;14177;51.520;6.764;2023-09-18T09:05:32;21.70;99.90
26503;DHT22;14177;51.520;6.764;2023-09-18T09:08:00;21.80;99.90
26503;DHT22;14177;51.520;6.764;2023-09-18T09:10:28;21.70;99.90
26503;DHT22;14177;51.520;6.764;2023-09-18T09:12:59;21.70;99.90
26503;DHT22;14177;51.520;6.764;2023-09-18T09:15:42;21.80;99.90
26503;DHT22;14177;51.520;6.764;2023-09-18T09:18:14;21.80;99.90
26503;DHT22;14177;51.520;6.764;2023-09-18T09:20:53;21.90;99.90
26503;DHT22;14177;51.520;6.764;2023-09-18T09:23:20;21.90;99.90
26503;DHT22;14177;51.520;6.764;2023-09-18T09:25:47;22.00;99.90
26503;DHT22;14177;51.520;6.764;2023-09-18T09:28:14;22.10;99.90
26503;DHT22;14177;51.520;6.764;2023-09-18T09:30:43;22.00;99.90
26503;DHT22;14177;51.520;6.764;2023-09-18T09:33:12;21.80;99.90
26503;DHT22;14177;51.520;6.764;2023-09-18T09:35:40;22.00;99.90
26503;DHT22;14177;51.520;6.764;2023-09-18T09:38:09;22.00;99.90
26503;DHT22;14177;51.520;6.764;2023-09-18T09:40:41;22.10;99.90
26503;DHT22;14177;51.520;6.764;2023-09-18T09:43:12;22.20;99.90
26503;DHT22;14177;51.520;6.764;2023-09-18T09:45:46;22.40;99.90
26503;DHT22;14177;51.520;6.764;2023-09-18T09:48:13;22.40;99.90
26503;DHT22;14177;51.520;6.764;2023-09-18T09:50:46;22.40;99.90
26503;DHT22;14177;51.520;6.764;2023-09-18T09:53:15;22.50;99.90
26503;DHT22;14177;51.520;6.764;2023-09-18T09:55:42;22.60;99.90
26503;DHT22;14177;51.520;6.764;2023-09-18T09:58:10;22.50;99.90
26503;DHT22;14177;51.520;6.764;2023-09-18T10:00:51;22.40;99.90
26503;DHT22;14177;51.520;6.764;2023-09-18T10:03:22;22.50;99.90
26503;DHT22;14177;51.520;6.764;2023-09-18T10:05:53;22.60;99.90
26503;DHT22;14177;51.520;6.764;2023-09-18T10:08:24;22.70;99.90
26503;DHT22;14177;51.520;6.764;2023-09-18T10:11:05;22.80;99.90
26503;DHT22;14177;51.520;6.764;2023-09-18T10:16:22;23.00;99.90
26503;DHT22;14177;51.520;6.764;2023-09-18T10:24:46;23.40;99.90
26503;DHT22;14177;51.520;6.764;2023-09-18T10:27:17;23.20;99.90
26503;DHT22;14177;51.520;6.764;2023-09-18T10:29:49;23.70;99.90
26503;DHT22;14177;51.520;6.764;2023-09-18T10:32:18;24.30;99.90
26503;DHT22;14177;51.520;6.764;2023-09-18T10:34:48;24.40;99.90
26503;DHT22;14177;51.520;6.764;2023-09-18T10:37:15;24.30;99.90
26503;DHT22;14177;51.520;6.764;2023-09-18T10:39:43;24.20;99.90
26503;DHT22;14177;51.520;6.764;2023-09-18T10:42:16;24.50;99.90
26503;DHT22;14177;51.520;6.764;2023-09-18T10:44:46;24.70;99.90
26503;DHT22;14177;51.520;6.764;2023-09-18T10:47:13;24.60;99.90
26503;DHT22;14177;51.520;6.764;2023-09-18T10:49:41;24.90;99.90
26503;DHT22;14177;51.520;6.764;2023-09-18T10:52:12;25.00;99.90
26503;DHT22;14177;51.520;6.764;2023-09-18T10:54:40;25.50;99.90
26503;DHT22;14177;51.520;6.764;2023-09-18T10:57:08;25.40;99.90
26503;DHT22;14177;51.520;6.764;2023-09-18T10:59:43;25.50;99.90
26503;DHT22;14177;51.520;6.764;2023-09-18T11:02:16;25.60;99.90
26503;DHT22;14177;51.520;6.764;2023-09-18T11:04:44;25.60;99.90
26503;DHT22;14177;51.520;6.764;2023-09-18T11:07:21;26.10;99.90
26503;DHT22;14177;51.520;6.764;2023-09-18T11:09:49;25.90;99.90
26503;DHT22;14177;51.520;6.764;2023-09-18T11:12:17;26.00;99.90
26503;DHT22;14177;51.520;6.764;2023-09-18T11:14:58;25.60;99.90
26503;DHT22;14177;51.520;6.764;2023-09-18T11:17:32;25.50;99.90
26503;DHT22;14177;51.520;6.764;2023-09-18T11:25:42;26.10;99.90
26503;DHT22;14177;51.520;6.764;2023-09-18T11:28:16;26.20;99.90
26503;DHT22;14177;51.520;6.764;2023-09-18T11:30:52;26.20;99.90
26503;DHT22;14177;51.520;6.764;2023-09-18T11:33:35;26.50;99.90
26503;DHT22;14177;51.520;6.764;2023-09-18T11:36:08;26.50;99.90
26503;DHT22;14177;51.520;6.764;2023-09-18T11:41:32;25.50;99.90
26503;DHT22;14177;51.520;6.764;2023-09-18T11:46:48;25.10;99.90
26503;DHT22;14177;51.520;6.764;2023-09-18T11:49:23;24.90;99.90
26503;DHT22;14177;51.520;6.764;2023-09-18T11:51:55;24.70;99.90
26503;DHT22;14177;51.520;6.764;2023-09-18T11:54:26;24.40;99.90
26503;DHT22;14177;51.520;6.764;2023-09-18T11:56:54;24.60;99.90
26503;DHT22;14177;51.520;6.764;2023-09-18T11:59:36;24.60;99.90
26503;DHT22;14177;51.520;6.764;2023-09-18T12:02:10;25.30;99.90
26503;DHT22;14177;51.520;6.764;2023-09-18T12:04:38;25.60;99.90
26503;DHT22;14177;51.520;6.764;2023-09-18T12:07:06;25.80;99.90
26503;DHT22;14177;51.520;6.764;2023-09-18T12:09:35;25.80;99.90
26503;DHT22;14177;51.520;6.764;2023-09-18T12:12:05;26.20;99.90
26503;DHT22;14177;51.520;6.764;2023-09-18T12:14:34;26.10;99.90
26503;DHT22;14177;51.520;6.764;2023-09-18T12:17:02;25.70;99.90
26503;DHT22;14177;51.520;6.764;2023-09-18T12:19:30;25.70;99.90
26503;DHT22;14177;51.520;6.764;2023-09-18T12:21:57;25.60;99.90
26503;DHT22;14177;51.520;6.764;2023-09-18T12:24:25;25.40;99.90
26503;DHT22;14177;51.520;6.764;2023-09-18T12:26:53;25.50;99.90
26503;DHT22;14177;51.520;6.764;2023-09-18T12:29:21;25.50;99.90
26503;DHT22;14177;51.520;6.764;2023-09-18T12:31:49;25.90;99.90
26503;DHT22;14177;51.520;6.764;2023-09-18T12:34:21;25.90;99.90
26503;DHT22;14177;51.520;6.764;2023-09-18T12:36:50;26.40;99.90
26503;DHT22;14177;51.520;6.764;2023-09-18T12:39:18;26.50;99.90
26503;DHT22;14177;51.520;6.764;2023-09-18T12:41:47;26.90;99.90
26503;DHT22;14177;51.520;6.764;2023-09-18T12:44:15;27.30;99.80
26503;DHT22;14177;51.520;6.764;2023-09-18T12:46:44;27.30;98.10
26503;DHT22;14177;51.520;6.764;2023-09-18T12:49:20;27.00;97.20
26503;DHT22;14177;51.520;6.764;2023-09-18T12:51:59;27.00;97.50
26503;DHT22;14177;51.520;6.764;2023-09-18T12:54:45;27.50;97.80
26503;DHT22;14177;51.520;6.764;2023-09-18T12:57:20;27.50;95.10
26503;DHT22;14177;51.520;6.764;2023-09-18T12:59:47;27.40;94.30
26503;DHT22;14177;51.520;6.764;2023-09-18T13:02:17;27.00;94.50
26503;DHT22;14177;51.520;6.764;2023-09-18T13:04:55;27.00;96.40
26503;DHT22;14177;51.520;6.764;2023-09-18T13:07:23;26.90;96.80
26503;DHT22;14177;51.520;6.764;2023-09-18T13:10:02;26.60;97.40
26503;DHT22;14177;51.520;6.764;2023-09-18T13:15:10;25.80;98.10
26503;DHT22;14177;51.520;6.764;2023-09-18T13:17:44;25.60;99.00
26503;DHT22;14177;51.520;6.764;2023-09-18T13:22:42;25.30;99.80
26503;DHT22;14177;51.520;6.764;2023-09-18T13:25:29;25.20;99.50
26503;DHT22;14177;51.520;6.764;2023-09-18T13:27:57;25.70;99.90
26503;DHT22;14177;51.520;6.764;2023-09-18T13:30:24;26.10;99.30
26503;DHT22;14177;51.520;6.764;2023-09-18T13:32:51;26.40;98.60
26503;DHT22;14177;51.520;6.764;2023-09-18T13:35:28;26.70;97.60
26503;DHT22;14177;51.520;6.764;2023-09-18T13:37:55;27.00;98.00
26503;DHT22;14177;51.520;6.764;2023-09-18T13:40:22;27.00;97.00
26503;DHT22;14177;51.520;6.764;2023-09-18T13:42:49;27.00;97.00
26503;DHT22;14177;51.520;6.764;2023-09-18T13:45:17;26.60;97.40
26503;DHT22;14177;51.520;6.764;2023-09-18T13:47:45;26.80;97.00
26503;DHT22;14177;51.520;6.764;2023-09-18T13:50:12;26.40;97.60
26503;DHT22;14177;51.520;6.764;2023-09-18T13:52:41;26.30;97.60
26503;DHT22;14177;51.520;6.764;2023-09-18T13:55:08;26.70;98.40
26503;DHT22;14177;51.520;6.764;2023-09-18T13:57:36;27.50;97.10
26503;DHT22;14177;51.520;6.764;2023-09-18T14:00:04;27.10;92.20
26503;DHT22;14177;51.520;6.764;2023-09-18T14:02:41;26.70;93.70
26503;DHT22;14177;51.520;6.764;2023-09-18T14:05:09;26.90;94.10
26503;DHT22;14177;51.520;6.764;2023-09-18T14:07:44;27.00;94.10
26503;DHT22;14177;51.520;6.764;2023-09-18T14:10:15;27.40;93.30
26503;DHT22;14177;51.520;6.764;2023-09-18T14:12:43;27.00;90.60
26503;DHT22;14177;51.520;6.764;2023-09-18T14:15:10;26.90;91.10
26503;DHT22;14177;51.520;6.764;2023-09-18T14:17:38;26.90;91.80
26503;DHT22;14177;51.520;6.764;2023-09-18T14:20:06;26.80;91.70
26503;DHT22;14177;51.520;6.764;2023-09-18T14:22:35;26.90;91.90
26503;DHT22;14177;51.520;6.764;2023-09-18T14:25:03;27.00;90.40
26503;DHT22;14177;51.520;6.764;2023-09-18T14:27:35;27.00;92.00
26503;DHT22;14177;51.520;6.764;2023-09-18T14:30:03;26.60;91.20
26503;DHT22;14177;51.520;6.764;2023-09-18T14:32:34;26.80;92.10
26503;DHT22;14177;51.520;6.764;2023-09-18T14:35:06;26.60;90.70
26503;DHT22;14177;51.520;6.764;2023-09-18T14:37:36;26.40;91.50
26503;DHT22;14177;51.520;6.764;2023-09-18T14:40:04;26.50;91.90
26503;DHT22;14177;51.520;6.764;2023-09-18T14:42:31;26.60;92.40
26503;DHT22;14177;51.520;6.764;2023-09-18T14:44:59;26.30;93.10
26503;DHT22;14177;51.520;6.764;2023-09-18T14:47:28;26.30;91.80
26503;DHT22;14177;51.520;6.764;2023-09-18T14:49:56;26.20;91.80
26503;DHT22;14177;51.520;6.764;2023-09-18T14:52:25;26.50;91.80
26503;DHT22;14177;51.520;6.764;2023-09-18T14:54:53;26.30;92.00
26503;DHT22;14177;51.520;6.764;2023-09-18T14:57:20;26.60;92.10
26503;DHT22;14177;51.520;6.764;2023-09-18T14:59:47;26.20;92.40
26503;DHT22;14177;51.520;6.764;2023-09-18T15:02:15;26.40;91.40
26503;DHT22;14177;51.520;6.764;2023-09-18T15:04:45;26.30;91.60
26503;DHT22;14177;51.520;6.764;2023-09-18T15:07:12;26.30;92.40
26503;DHT22;14177;51.520;6.764;2023-09-18T15:09:40;26.40;92.40
26503;DHT22;14177;51.520;6.764;2023-09-18T15:12:08;26.20;93.00
26503;DHT22;14177;51.520;6.764;2023-09-18T15:14:36;26.20;93.40
26503;DHT22;14177;51.520;6.764;2023-09-18T15:17:04;26.40;94.00
26503;DHT22;14177;51.520;6.764;2023-09-18T15:19:31;26.10;93.10
26503;DHT22;14177;51.520;6.764;2023-09-18T15:21:59;26.00;92.70
26503;DHT22;14177;51.520;6.764;2023-09-18T15:24:28;26.10;93.40
26503;DHT22;14177;51.520;6.764;2023-09-18T15:26:54;26.20;92.20
26503;DHT22;14177;51.520;6.764;2023-09-18T15:29:23;26.20;92.90
26503;DHT22;14177;51.520;6.764;2023-09-18T15:31:51;26.10;90.60
26503;DHT22;14177;51.520;6.764;2023-09-18T15:34:17;26.00;90.10
26503;DHT22;14177;51.520;6.764;2023-09-18T15:36:45;25.90;90.60
26503;DHT22;14177;51.520;6.764;2023-09-18T15:39:12;25.80;91.30
26503;DHT22;14177;51.520;6.764;2023-09-18T15:41:40;25.60;92.00
26503;DHT22;14177;51.520;6.764;2023-09-18T15:44:07;25.50;92.20
26503;DHT22;14177;51.520;6.764;2023-09-18T15:46:37;25.40;93.40
26503;DHT22;14177;51.520;6.764;2023-09-18T15:49:04;25.40;94.20
26503;DHT22;14177;51.520;6.764;2023-09-18T15:51:31;25.40;94.50
26503;DHT22;14177;51.520;6.764;2023-09-18T15:53:57;25.40;94.50
26503;DHT22;14177;51.520;6.764;2023-09-18T15:56:25;25.40;94.30
26503;DHT22;14177;51.520;6.764;2023-09-18T15:58:52;25.30;93.90
26503;DHT22;14177;51.520;6.764;2023-09-18T16:01:19;25.20;93.40
26503;DHT22;14177;51.520;6.764;2023-09-18T16:03:47;25.10;94.40
26503;DHT22;14177;51.520;6.764;2023-09-18T16:06:16;25.00;93.90
26503;DHT22;14177;51.520;6.764;2023-09-18T16:08:48;24.90;93.90